Time;durP1;ratioP1;P1;durP2;ratioP2;P2;SDS_P1;SDS_P2;PMS_P1;PMS_P2;Temp;Humidity;BMP_temperature;BMP_pressure;BME280_temperature;BME280_humidity;BME280_pressure;Samples;Min_cycle;Max_cycle;Signal;HPM_P1;HPM_P2
2021/12/11 00:01:57;;;;;;;1999.90;999.90;;;-1.90;99.90;;;;;;5031555;28;20483;-70
2021/12/11 00:04:31;;;;;;;1999.90;999.90;;;-1.90;99.90;;;;;;5031572;28;20885;-69
2021/12/11 00:07:02;;;;;;;1999.90;999.90;;;-1.80;99.90;;;;;;5032042;28;20474;-69
2021/12/11 00:09:33;;;;;;;1999.90;999.90;;;-1.20;99.90;;;;;;5032957;28;20966;-69
2021/12/11 00:12:05;;;;;;;1999.90;999.90;;;-1.60;99.90;;;;;;5031686;28;20451;-69
2021/12/11 00:14:38;;;;;;;1999.90;999.90;;;-1.70;99.90;;;;;;5031253;28;20541;-70
2021/12/11 00:17:05;;;;;;;1999.90;999.90;;;-1.70;99.90;;;;;;5031432;28;20993;-68
2021/12/11 00:19:35;;;;;;;1999.90;999.90;;;-1.80;99.90;;;;;;5031304;28;20464;-69
2021/12/11 00:22:07;;;;;;;1999.90;999.90;;;-1.80;99.90;;;;;;5031373;28;20458;-68
2021/12/11 00:24:36;;;;;;;1999.90;999.90;;;-1.70;99.90;;;;;;5033087;28;20534;-69
2021/12/11 00:27:07;;;;;;;1999.90;999.90;;;-1.70;99.90;;;;;;5035992;28;20483;-70
2021/12/11 00:29:35;;;;;;;1999.90;999.90;;;-1.70;99.90;;;;;;5036527;28;20436;-69
2021/12/11 00:32:05;;;;;;;1999.90;999.90;;;-1.70;99.90;;;;;;5036222;28;20455;-69
2021/12/11 00:34:33;;;;;;;1999.90;999.90;;;-1.70;99.90;;;;;;5030201;28;20467;-70
2021/12/11 00:37:01;;;;;;;1999.90;999.90;;;-1.90;99.90;;;;;;5035545;28;20447;-69
2021/12/11 00:39:31;;;;;;;1999.90;999.90;;;-1.80;99.90;;;;;;5032525;28;20505;-68
2021/12/11 00:42:00;;;;;;;1999.90;999.90;;;-1.70;99.90;;;;;;5030498;28;20461;-67
2021/12/11 00:44:36;;;;;;;1999.90;999.90;;;-1.90;99.90;;;;;;5030690;28;20463;-68
2021/12/11 00:47:12;;;;;;;1999.90;999.90;;;-1.80;99.90;;;;;;5030560;28;20522;-69
2021/12/11 00:49:49;;;;;;;1999.90;999.90;;;-1.80;99.90;;;;;;5030578;28;21046;-68
2021/12/11 00:52:16;;;;;;;1999.90;999.90;;;-1.90;99.90;;;;;;5030300;28;20435;-69
2021/12/11 00:54:45;;;;;;;1999.90;999.90;;;-2.00;99.90;;;;;;5030524;28;20439;-69
2021/12/11 00:57:20;;;;;;;1999.90;999.90;;;-2.00;99.90;;;;;;5035188;28;20509;-69
2021/12/11 00:59:47;;;;;;;1999.90;999.90;;;-2.00;99.90;;;;;;5038821;28;20454;-69
2021/12/11 01:02:14;;;;;;;1999.90;999.90;;;-2.10;99.90;;;;;;5042987;28;20454;-69
2021/12/11 01:04:42;;;;;;;1999.90;999.90;;;-1.60;99.90;;;;;;5030215;28;20463;-68
2021/12/11 01:07:17;;;;;;;1999.90;999.90;;;-1.60;99.90;;;;;;5030290;28;20960;-69
2021/12/11 01:09:49;;;;;;;1999.90;999.90;;;-2.20;99.90;;;;;;5030812;28;20819;-69
2021/12/11 01:12:25;;;;;;;1999.90;999.90;;;-2.20;99.90;;;;;;5030213;28;20443;-68
2021/12/11 01:14:57;;;;;;;1999.90;999.90;;;-2.30;99.90;;;;;;5030657;28;20531;-68
2021/12/11 01:17:36;;;;;;;1999.90;999.90;;;-2.20;99.90;;;;;;5030099;28;20450;-68
2021/12/11 01:20:11;;;;;;;1999.90;999.90;;;-2.40;99.90;;;;;;5030847;28;20821;-69
2021/12/11 01:22:39;;;;;;;1999.90;999.90;;;-2.60;99.90;;;;;;5039841;28;20482;-69
2021/12/11 01:25:09;;;;;;;1999.90;999.90;;;-2.60;99.90;;;;;;5029707;28;21032;-69
2021/12/11 01:27:40;;;;;;;1999.90;999.90;;;-2.60;99.90;;;;;;5029589;28;20526;-70
2021/12/11 01:30:11;;;;;;;1999.90;999.90;;;-2.70;99.90;;;;;;5029749;28;20447;-69
2021/12/11 01:32:39;;;;;;;1999.90;999.90;;;-2.50;99.90;;;;;;5029983;28;20564;-68
2021/12/11 01:35:09;;;;;;;1999.90;999.90;;;-2.30;99.90;;;;;;5029875;28;20447;-69
2021/12/11 01:37:36;;;;;;;1999.90;999.90;;;-2.60;99.90;;;;;;5029879;28;20513;-69
2021/12/11 01:40:07;;;;;;;1999.90;999.90;;;-2.70;99.90;;;;;;5029414;28;20501;-69
2021/12/11 01:42:35;;;;;;;1999.90;999.90;;;-2.70;99.90;;;;;;5029602;28;20455;-68
2021/12/11 01:45:09;;;;;;;1999.90;999.90;;;-2.90;99.90;;;;;;5030605;28;20454;-69
2021/12/11 01:47:38;;;;;;;1999.90;999.90;;;-2.90;99.90;;;;;;5029390;28;20471;-70
2021/12/11 01:50:10;;;;;;;1999.90;999.90;;;-2.80;99.90;;;;;;5029005;28;21032;-69
2021/12/11 01:52:42;;;;;;;1999.90;999.90;;;-2.70;99.90;;;;;;5029437;28;20502;-68
2021/12/11 01:55:11;;;;;;;1999.90;999.90;;;-2.60;99.90;;;;;;5029526;28;20431;-68
2021/12/11 01:57:38;;;;;;;1999.90;999.90;;;-2.60;99.90;;;;;;5032112;28;20525;-69
2021/12/11 02:00:11;;;;;;;1999.90;999.90;;;-2.50;99.90;;;;;;5033308;28;20451;-69
2021/12/11 02:02:42;;;;;;;1999.90;999.90;;;-2.50;99.90;;;;;;5033517;28;20471;-69
2021/12/11 02:05:10;;;;;;;1999.90;999.90;;;-2.40;99.90;;;;;;5033343;28;20506;-69
2021/12/11 02:07:40;;;;;;;1999.90;999.90;;;-2.40;99.90;;;;;;5033431;28;20490;-71
2021/12/11 02:10:18;;;;;;;1999.90;999.90;;;-2.50;99.90;;;;;;5041055;28;20995;-69
2021/12/11 02:12:46;;;;;;;1999.90;999.90;;;-2.50;99.90;;;;;;5033235;28;20494;-71
2021/12/11 02:15:17;;;;;;;1999.90;999.90;;;-2.50;99.90;;;;;;5033361;28;20454;-69
2021/12/11 02:17:51;;;;;;;1999.90;999.90;;;-2.50;99.90;;;;;;5047013;28;20440;-69
2021/12/11 02:20:27;;;;;;;1999.90;999.90;;;-2.60;99.90;;;;;;5032798;28;20455;-68
2021/12/11 02:22:56;;;;;;;1999.90;999.90;;;-2.60;99.90;;;;;;5045294;28;20612;-68
2021/12/11 02:25:25;;;;;;;1999.90;999.90;;;-2.50;99.90;;;;;;5033261;28;20508;-69
2021/12/11 02:27:55;;;;;;;1999.90;999.90;;;-2.50;99.90;;;;;;5032786;28;20537;-70
2021/12/11 02:30:27;;;;;;;1999.90;999.90;;;-2.40;99.90;;;;;;5033171;28;20447;-69
2021/12/11 02:33:03;;;;;;;1999.90;999.90;;;-2.60;99.90;;;;;;5036945;28;20836;-68
2021/12/11 02:35:37;;;;;;;1999.90;999.90;;;-2.70;99.90;;;;;;5013475;28;20440;-70
2021/12/11 02:38:10;;;;;;;1999.90;999.90;;;-2.60;99.90;;;;;;5013346;28;20451;-69
2021/12/11 02:43:13;;;;;;;1999.90;999.90;;;-2.30;99.90;;;;;;5046834;28;20466;-67
2021/12/11 02:45:43;;;;;;;1999.90;999.90;;;-2.30;99.90;;;;;;5052302;28;20439;-67
2021/12/11 02:48:14;;;;;;;1999.90;999.90;;;-2.30;99.90;;;;;;5053714;28;20474;-68
2021/12/11 02:50:44;;;;;;;1999.90;999.90;;;-2.40;99.90;;;;;;5052024;28;20520;-67
2021/12/11 02:53:16;;;;;;;1999.90;999.90;;;-2.40;99.90;;;;;;5043654;28;20455;-67
2021/12/11 02:55:47;;;;;;;1999.90;999.90;;;-2.50;99.90;;;;;;5044930;28;20459;-68
2021/12/11 02:58:19;;;;;;;1999.90;999.90;;;-2.30;99.90;;;;;;5043118;28;20452;-67
2021/12/11 03:00:50;;;;;;;1999.90;999.90;;;-2.60;99.90;;;;;;5043118;28;20489;-68
2021/12/11 03:03:25;;;;;;;1999.90;999.90;;;-2.70;99.90;;;;;;5046437;28;20469;-67
2021/12/11 03:06:00;;;;;;;1999.90;999.90;;;-2.70;99.90;;;;;;5046622;28;20457;-69
2021/12/11 03:08:28;;;;;;;1999.90;999.90;;;-2.60;99.90;;;;;;5039252;28;20595;-68
2021/12/11 03:10:58;;;;;;;1999.90;999.90;;;-2.90;99.90;;;;;;5036422;28;20494;-68
2021/12/11 03:13:29;;;;;;;1999.90;999.90;;;-2.70;99.90;;;;;;5037157;28;20493;-68
2021/12/11 03:15:56;;;;;;;1999.90;999.90;;;-2.90;99.90;;;;;;5037655;28;20445;-68
2021/12/11 03:18:24;;;;;;;1999.90;999.90;;;-3.00;99.90;;;;;;5039461;28;20455;-68
2021/12/11 03:20:52;;;;;;;1999.90;999.90;;;-2.90;99.90;;;;;;5041994;28;20882;-69
2021/12/11 03:23:20;;;;;;;1999.90;999.90;;;-3.10;99.90;;;;;;5042737;28;20439;-66
2021/12/11 03:25:48;;;;;;;1999.90;999.90;;;-2.90;99.90;;;;;;5043780;28;20454;-67
2021/12/11 03:28:17;;;;;;;1999.90;999.90;;;-3.20;99.90;;;;;;5041825;28;20487;-68
2021/12/11 03:30:50;;;;;;;1999.90;999.90;;;-2.80;99.90;;;;;;5042673;28;20446;-67
2021/12/11 03:33:19;;;;;;;1999.90;999.90;;;-3.10;99.90;;;;;;5036645;28;20951;-68
2021/12/11 03:35:48;;;;;;;1999.90;999.90;;;-3.30;99.90;;;;;;5036709;28;20451;-68
2021/12/11 03:38:16;;;;;;;1999.90;999.90;;;-3.30;99.90;;;;;;5035935;28;20459;-68
2021/12/11 03:40:44;;;;;;;1999.90;999.90;;;-3.30;99.90;;;;;;5036354;28;21040;-66
2021/12/11 03:43:16;;;;;;;1999.90;999.90;;;-3.50;99.90;;;;;;5035657;28;20456;-69
2021/12/11 03:45:44;;;;;;;1999.90;999.90;;;-3.10;99.90;;;;;;5036838;28;20916;-68
2021/12/11 03:48:15;;;;;;;1999.90;999.90;;;-3.50;99.90;;;;;;5037187;28;20483;-69
2021/12/11 03:50:43;;;;;;;1999.90;999.90;;;-3.40;99.90;;;;;;5042307;28;20503;-68
2021/12/11 03:53:11;;;;;;;1999.90;999.90;;;-3.40;99.90;;;;;;5041989;28;20451;-69
2021/12/11 03:55:46;;;;;;;1999.90;999.90;;;-3.50;99.90;;;;;;5041077;28;20459;-68
2021/12/11 03:58:15;;;;;;;1999.90;999.90;;;-3.70;99.90;;;;;;5040782;28;20497;-68
2021/12/11 04:00:45;;;;;;;1999.90;999.90;;;-3.80;99.90;;;;;;5040838;28;20454;-68
2021/12/11 04:03:14;;;;;;;1999.90;999.90;;;-3.80;99.90;;;;;;5041210;28;20444;-67
2021/12/11 04:05:43;;;;;;;1999.90;999.90;;;-3.70;99.90;;;;;;5042084;28;20857;-69
2021/12/11 04:08:13;;;;;;;1999.90;999.90;;;-3.70;99.90;;;;;;5041297;28;20486;-68
2021/12/11 04:10:40;;;;;;;1999.90;999.90;;;-3.70;99.90;;;;;;5041831;28;20466;-68
2021/12/11 04:13:09;;;;;;;1999.90;999.90;;;-3.70;99.90;;;;;;5045536;28;20504;-69
2021/12/11 04:15:40;;;;;;;1999.90;999.90;;;-3.80;99.90;;;;;;5054998;28;20496;-68
2021/12/11 04:18:08;;;;;;;1999.90;999.90;;;-3.70;99.90;;;;;;5044325;28;20542;-68
2021/12/11 04:20:39;;;;;;;1999.90;999.90;;;-3.70;99.90;;;;;;5039262;28;20450;-68
2021/12/11 04:23:08;;;;;;;1999.90;999.90;;;-3.60;99.90;;;;;;5039693;28;20517;-69
2021/12/11 04:25:35;;;;;;;1999.90;999.90;;;-3.60;99.90;;;;;;5039857;28;20541;-68
2021/12/11 04:28:02;;;;;;;1999.90;999.90;;;-3.60;99.90;;;;;;5039837;28;20479;-68
2021/12/11 04:30:29;;;;;;;1999.90;999.90;;;-3.50;99.90;;;;;;5039990;28;20446;-69
2021/12/11 04:32:59;;;;;;;1999.90;999.90;;;-3.50;99.90;;;;;;5043640;28;20471;-68
2021/12/11 04:35:29;;;;;;;1999.90;999.90;;;-3.40;99.90;;;;;;5033945;28;20542;-68
2021/12/11 04:37:56;;;;;;;1999.90;999.90;;;-3.50;99.90;;;;;;5039862;28;20447;-68
2021/12/11 04:40:28;;;;;;;1999.90;999.90;;;-3.10;99.90;;;;;;5041081;28;20457;-68
2021/12/11 04:43:01;;;;;;;1999.90;999.90;;;-3.50;99.90;;;;;;5041564;28;20478;-68
2021/12/11 04:45:33;;;;;;;1999.90;999.90;;;-3.60;99.90;;;;;;5041230;28;20440;-68
2021/12/11 04:48:09;;;;;;;1999.90;999.90;;;-3.60;99.90;;;;;;5041759;28;20485;-69
2021/12/11 04:50:44;;;;;;;1999.90;999.90;;;-3.60;99.90;;;;;;5040752;28;20459;-67
2021/12/11 04:53:26;;;;;;;1999.90;999.90;;;-3.70;99.90;;;;;;5040206;28;20446;-67
2021/12/11 04:56:13;;;;;;;1999.90;999.90;;;-3.70;99.90;;;;;;5042205;28;20451;-68
2021/12/11 04:58:56;;;;;;;1999.90;999.90;;;-3.60;99.90;;;;;;5040357;28;20454;-68
2021/12/11 05:01:39;;;;;;;1999.90;999.90;;;-3.70;99.90;;;;;;5040865;28;20497;-68
2021/12/11 05:04:42;;;;;;;1999.90;999.90;;;-3.60;99.90;;;;;;5041252;28;20474;-68
2021/12/11 05:07:21;;;;;;;1999.90;999.90;;;-3.50;99.90;;;;;;5040020;28;20454;-67
2021/12/11 05:09:54;;;;;;;1999.90;999.90;;;-3.40;99.90;;;;;;5041872;28;20534;-67
2021/12/11 05:12:32;;;;;;;1999.90;999.90;;;-3.30;99.90;;;;;;5040473;28;20471;-67
2021/12/11 05:14:58;;;;;;;1999.90;999.90;;;-3.40;99.90;;;;;;5045167;28;20458;-68
2021/12/11 05:17:26;;;;;;;1999.90;999.90;;;-3.50;99.90;;;;;;5042286;28;20454;-68
2021/12/11 05:19:54;;;;;;;1999.90;999.90;;;-3.40;99.90;;;;;;5040974;28;20451;-68
2021/12/11 05:22:21;;;;;;;1999.90;999.90;;;-3.30;99.90;;;;;;5046777;28;20467;-68
2021/12/11 05:24:53;;;;;;;1999.90;999.90;;;-3.20;99.90;;;;;;5047280;28;20465;-66
2021/12/11 05:27:20;;;;;;;1999.90;999.90;;;-3.20;99.90;;;;;;5044286;28;20500;-68
2021/12/11 05:29:47;;;;;;;1999.90;999.90;;;-3.20;99.90;;;;;;5041639;28;20447;-68
2021/12/11 05:32:19;;;;;;;1999.90;999.90;;;-3.10;99.90;;;;;;5041659;28;20467;-67
2021/12/11 05:34:46;;;;;;;1999.90;999.90;;;-3.00;99.90;;;;;;5042542;28;20451;-68
2021/12/11 05:37:14;;;;;;;1999.90;999.90;;;-3.00;99.90;;;;;;5041254;28;20462;-68
2021/12/11 05:39:42;;;;;;;1999.90;999.90;;;-3.00;99.90;;;;;;5040851;28;20447;-68
2021/12/11 05:42:09;;;;;;;1999.90;999.90;;;-3.00;99.90;;;;;;5041112;28;20483;-68
2021/12/11 05:44:36;;;;;;;1999.90;999.90;;;-3.00;99.90;;;;;;5040350;28;20880;-68
2021/12/11 05:47:03;;;;;;;1999.90;999.90;;;-2.90;99.90;;;;;;5040881;28;20512;-68
2021/12/11 05:49:31;;;;;;;1999.90;999.90;;;-2.80;99.90;;;;;;5037888;28;20473;-67
2021/12/11 05:51:58;;;;;;;1999.90;999.90;;;-2.80;99.90;;;;;;5041214;28;20474;-68
2021/12/11 05:54:28;;;;;;;1999.90;999.90;;;-2.70;99.90;;;;;;5040734;28;20483;-68
2021/12/11 05:57:00;;;;;;;1999.90;999.90;;;-2.80;99.90;;;;;;5040971;28;20455;-68
2021/12/11 05:59:27;;;;;;;1999.90;999.90;;;-2.70;99.90;;;;;;5040185;28;20562;-66
2021/12/11 06:01:58;;;;;;;1999.90;999.90;;;-2.60;99.90;;;;;;5048495;28;20471;-68
2021/12/11 06:04:31;;;;;;;1999.90;999.90;;;-2.60;99.90;;;;;;5038500;28;20451;-68
2021/12/11 06:06:58;;;;;;;1999.90;999.90;;;-2.50;99.90;;;;;;5035429;28;20436;-68
2021/12/11 06:09:27;;;;;;;1999.90;999.90;;;-2.40;99.90;;;;;;5035421;28;20466;-68
2021/12/11 06:11:56;;;;;;;1999.90;999.90;;;-2.40;99.90;;;;;;5036812;28;20883;-68
2021/12/11 06:14:23;;;;;;;1999.90;999.90;;;-2.40;99.90;;;;;;5040639;28;20447;-66
2021/12/11 06:16:54;;;;;;;1999.90;999.90;;;-2.30;99.90;;;;;;5038415;28;20447;-68
2021/12/11 06:19:22;;;;;;;1999.90;999.90;;;-2.30;99.90;;;;;;5034650;28;20486;-69
2021/12/11 06:21:50;;;;;;;1999.90;999.90;;;-1.80;99.90;;;;;;5035262;28;20478;-68
2021/12/11 06:24:17;;;;;;;1999.90;999.90;;;-2.30;99.90;;;;;;5040592;28;20790;-67
2021/12/11 06:26:45;;;;;;;1999.90;999.90;;;-2.20;99.90;;;;;;5041022;28;20450;-68
2021/12/11 06:29:12;;;;;;;1999.90;999.90;;;-2.20;99.90;;;;;;5039614;28;20804;-68
2021/12/11 06:31:42;;;;;;;1999.90;999.90;;;-1.90;99.90;;;;;;5041063;28;20547;-68
2021/12/11 06:34:09;;;;;;;1999.90;999.90;;;-2.10;99.90;;;;;;5041380;28;20454;-69
2021/12/11 06:36:35;;;;;;;1999.90;999.90;;;-2.00;99.90;;;;;;5039382;28;21086;-68
2021/12/11 06:39:07;;;;;;;1999.90;999.90;;;-1.70;99.90;;;;;;5041057;28;20504;-68
2021/12/11 06:41:36;;;;;;;1999.90;999.90;;;-1.90;99.90;;;;;;5041470;28;20539;-69
2021/12/11 06:44:05;;;;;;;1999.90;999.90;;;-1.60;99.90;;;;;;5044442;28;20447;-68
2021/12/11 06:46:33;;;;;;;1999.90;999.90;;;-1.80;99.90;;;;;;5043679;28;20474;-68
2021/12/11 06:49:01;;;;;;;1999.90;999.90;;;-1.50;99.90;;;;;;5044249;28;20477;-67
2021/12/11 06:51:28;;;;;;;1999.90;999.90;;;-1.90;99.90;;;;;;5042863;28;20537;-68
2021/12/11 06:53:58;;;;;;;1999.90;999.90;;;-1.90;99.90;;;;;;5044355;28;20577;-69
2021/12/11 06:56:27;;;;;;;1999.90;999.90;;;-2.00;99.90;;;;;;5042532;28;20455;-68
2021/12/11 06:58:54;;;;;;;1999.90;999.90;;;-1.90;99.90;;;;;;5044994;28;20475;-69
2021/12/11 07:01:24;;;;;;;1999.90;999.90;;;-1.90;99.90;;;;;;5042989;28;20474;-68
2021/12/11 07:03:51;;;;;;;1999.90;999.90;;;-1.90;99.90;;;;;;5044530;28;20472;-68
2021/12/11 07:06:18;;;;;;;1999.90;999.90;;;-1.50;99.90;;;;;;5043295;28;20504;-68
2021/12/11 07:08:46;;;;;;;1999.90;999.90;;;-1.80;99.90;;;;;;5044744;28;20446;-67
2021/12/11 07:11:13;;;;;;;1999.90;999.90;;;-1.80;99.90;;;;;;5043903;28;20525;-68
2021/12/11 07:13:41;;;;;;;1999.90;999.90;;;-1.70;99.90;;;;;;5045526;28;20451;-68
2021/12/11 07:16:09;;;;;;;1999.90;999.90;;;-1.50;99.90;;;;;;5044447;28;20478;-69
2021/12/11 07:18:38;;;;;;;1999.90;999.90;;;-1.60;99.90;;;;;;5044992;28;20475;-68
2021/12/11 07:21:06;;;;;;;1999.90;999.90;;;-1.20;99.90;;;;;;5042403;28;20478;-67
2021/12/11 07:23:33;;;;;;;1999.90;999.90;;;-1.20;99.90;;;;;;5045223;28;20448;-67
2021/12/11 07:26:02;;;;;;;1999.90;999.90;;;-1.50;99.90;;;;;;5044211;28;20537;-68
2021/12/11 07:28:29;;;;;;;1999.90;999.90;;;-1.50;99.90;;;;;;5046546;28;20442;-68
2021/12/11 07:30:59;;;;;;;1999.90;999.90;;;-1.50;99.90;;;;;;5040136;28;20471;-68
2021/12/11 07:33:26;;;;;;;1999.90;999.90;;;-1.40;99.90;;;;;;5038209;28;20451;-69
2021/12/11 07:35:55;;;;;;;1999.90;999.90;;;-1.10;99.90;;;;;;5037677;28;20502;-68
2021/12/11 07:38:22;;;;;;;1999.90;999.90;;;-1.50;99.90;;;;;;5037816;28;20538;-68
2021/12/11 07:40:53;;;;;;;1999.90;999.90;;;-1.50;99.90;;;;;;5040181;28;20447;-68
2021/12/11 07:43:20;;;;;;;1999.90;999.90;;;-1.10;99.90;;;;;;5043928;28;21025;-68
2021/12/11 07:45:48;;;;;;;1999.90;999.90;;;-1.40;99.90;;;;;;5043429;28;20446;-68
2021/12/11 07:48:15;;;;;;;1999.90;999.90;;;-1.20;99.90;;;;;;5045337;28;20443;-68
2021/12/11 07:50:43;;;;;;;1999.90;999.90;;;-1.10;99.90;;;;;;5042270;28;20799;-68
2021/12/11 07:53:11;;;;;;;1999.90;999.90;;;-0.90;99.90;;;;;;5042393;28;20448;-68
2021/12/11 07:55:39;;;;;;;1999.90;999.90;;;-1.00;99.90;;;;;;5043920;28;20446;-68
2021/12/11 07:58:08;;;;;;;1999.90;999.90;;;-1.10;99.90;;;;;;5038363;28;20468;-66
2021/12/11 08:00:37;;;;;;;1999.90;999.90;;;-1.00;99.90;;;;;;5031157;28;20566;-65
2021/12/11 08:03:05;;;;;;;1999.90;999.90;;;-0.80;99.90;;;;;;5033089;28;20459;-68
2021/12/11 08:05:32;;;;;;;1999.90;999.90;;;-0.70;99.90;;;;;;5036492;28;20440;-68
2021/12/11 08:08:01;;;;;;;1999.90;999.90;;;-0.60;99.90;;;;;;5036976;28;20451;-67
2021/12/11 08:10:31;;;;;;;1999.90;999.90;;;-0.40;99.90;;;;;;5036924;28;20506;-68
2021/12/11 08:12:59;;;;;;;1999.90;999.90;;;-0.50;99.90;;;;;;5041329;28;20489;-68
2021/12/11 08:15:26;;;;;;;1999.90;999.90;;;-0.50;99.90;;;;;;5047151;28;20520;-68
2021/12/11 08:17:54;;;;;;;1999.90;999.90;;;-0.20;99.90;;;;;;5055536;28;20489;-66
2021/12/11 08:20:25;;;;;;;1999.90;999.90;;;-0.20;99.90;;;;;;5039062;28;20493;-68
2021/12/11 08:22:52;;;;;;;1999.90;999.90;;;-0.10;99.90;;;;;;5039265;28;20909;-68
2021/12/11 08:25:19;;;;;;;1999.90;999.90;;;0.00;99.90;;;;;;5037410;28;20873;-68
2021/12/11 08:27:47;;;;;;;1999.90;999.90;;;0.00;99.90;;;;;;5036551;28;20466;-68
2021/12/11 08:30:16;;;;;;;1999.90;999.90;;;0.20;99.90;;;;;;5037414;28;20458;-68
2021/12/11 08:32:43;;;;;;;1999.90;999.90;;;0.30;99.90;;;;;;5036753;28;20759;-68
2021/12/11 08:35:12;;;;;;;1999.90;999.90;;;0.40;99.90;;;;;;5038386;28;21164;-68
2021/12/11 08:37:41;;;;;;;1999.90;999.90;;;0.50;99.90;;;;;;5039201;28;20472;-69
2021/12/11 08:40:12;;;;;;;1999.90;999.90;;;0.50;99.90;;;;;;5044691;28;20905;-68
2021/12/11 08:42:39;;;;;;;1999.90;999.90;;;0.60;99.90;;;;;;5055688;22;20556;-67
2021/12/11 08:45:11;;;;;;;1999.90;999.90;;;0.80;99.90;;;;;;5049646;28;20500;-67
2021/12/11 08:47:41;;;;;;;1999.90;999.90;;;0.80;99.90;;;;;;5049009;28;20438;-69
2021/12/11 08:50:11;;;;;;;1999.90;999.90;;;1.20;99.90;;;;;;5049078;28;20447;-69
2021/12/11 08:52:43;;;;;;;1999.90;999.90;;;1.10;99.90;;;;;;5049066;28;20462;-69
2021/12/11 08:55:13;;;;;;;1999.90;999.90;;;1.20;99.90;;;;;;5048049;28;20444;-69
2021/12/11 08:57:41;;;;;;;1999.90;999.90;;;1.30;99.90;;;;;;5049077;28;20438;-68
2021/12/11 09:00:15;;;;;;;1999.90;999.90;;;1.50;99.90;;;;;;5048454;28;20565;-66
2021/12/11 09:02:46;;;;;;;1999.90;999.90;;;1.50;99.90;;;;;;5047993;28;20474;-67
2021/12/11 09:05:18;;;;;;;1999.90;999.90;;;1.50;99.90;;;;;;5048616;28;20449;-67
2021/12/11 09:07:47;;;;;;;1999.90;999.90;;;1.60;99.90;;;;;;5049202;28;20454;-67
2021/12/11 09:10:18;;;;;;;1999.90;999.90;;;1.60;99.90;;;;;;5048741;28;20451;-67
2021/12/11 09:12:49;;;;;;;1999.90;999.90;;;1.70;99.90;;;;;;5048514;28;20896;-66
2021/12/11 09:15:23;;;;;;;1999.90;999.90;;;1.70;99.90;;;;;;5049440;28;20438;-69
2021/12/11 09:17:52;;;;;;;1999.90;999.90;;;1.60;99.90;;;;;;5051931;28;20446;-70
2021/12/11 09:20:26;;;;;;;1999.90;999.90;;;1.60;99.90;;;;;;5051675;28;20994;-70
2021/12/11 09:22:59;;;;;;;1999.90;999.90;;;1.80;99.90;;;;;;5049496;28;20485;-72
2021/12/11 09:25:34;;;;;;;1999.90;999.90;;;1.90;99.90;;;;;;5048259;28;20454;-70
2021/12/11 09:28:06;;;;;;;1999.90;999.90;;;1.90;99.90;;;;;;5048022;28;20468;-69
2021/12/11 09:30:38;;;;;;;1999.90;999.90;;;2.00;99.90;;;;;;5047477;28;20442;-69
2021/12/11 09:33:09;;;;;;;1999.90;999.90;;;2.00;99.90;;;;;;5047860;28;21055;-68
2021/12/11 09:35:41;;;;;;;1999.90;999.90;;;2.00;99.90;;;;;;5048548;28;20472;-67
2021/12/11 09:38:11;;;;;;;1999.90;999.90;;;2.10;99.90;;;;;;5048359;28;20454;-67
2021/12/11 09:40:53;;;;;;;1999.90;999.90;;;2.20;99.90;;;;;;5047464;28;20482;-68
2021/12/11 09:43:39;;;;;;;1999.90;999.90;;;2.20;99.90;;;;;;5048582;28;20485;-68
2021/12/11 09:46:09;;;;;;;1999.90;999.90;;;2.30;99.90;;;;;;5048238;28;20492;-68
2021/12/11 09:48:39;;;;;;;1999.90;999.90;;;2.40;99.90;;;;;;5048123;28;20862;-68
2021/12/11 09:51:10;;;;;;;1999.90;999.90;;;2.40;99.90;;;;;;5047999;28;20838;-67
2021/12/11 09:53:41;;;;;;;1999.90;999.90;;;2.30;99.90;;;;;;5047608;28;21073;-67
2021/12/11 09:56:11;;;;;;;1999.90;999.90;;;2.40;99.90;;;;;;5047173;28;20973;-67
2021/12/11 09:58:41;;;;;;;1999.90;999.90;;;2.50;99.90;;;;;;5048465;28;20442;-67
2021/12/11 10:01:11;;;;;;;1999.90;999.90;;;2.50;99.90;;;;;;5047705;28;20451;-67
2021/12/11 10:03:45;;;;;;;1999.90;999.90;;;2.60;99.90;;;;;;5047316;28;20516;-69
2021/12/11 10:06:27;;;;;;;1999.90;999.90;;;2.50;99.90;;;;;;5047822;28;20444;-69
2021/12/11 10:09:08;;;;;;;1999.90;999.90;;;2.50;99.90;;;;;;5047918;28;20947;-70
2021/12/11 10:11:35;;;;;;;1999.90;999.90;;;2.50;99.90;;;;;;5047409;28;20486;-69
2021/12/11 10:14:07;;;;;;;1999.90;999.90;;;2.60;99.90;;;;;;5047893;28;20458;-68
2021/12/11 10:16:38;;;;;;;1999.90;999.90;;;2.80;99.90;;;;;;5047029;28;20506;-66
2021/12/11 10:19:06;;;;;;;1999.90;999.90;;;2.90;99.90;;;;;;5050692;28;20527;-69
2021/12/11 10:21:36;;;;;;;1999.90;999.90;;;3.00;99.90;;;;;;5051148;28;20527;-69
2021/12/11 10:24:07;;;;;;;1999.90;999.90;;;2.90;99.90;;;;;;5051858;28;20507;-69
2021/12/11 10:26:35;;;;;;;1999.90;999.90;;;2.80;99.90;;;;;;5051291;28;21028;-67
2021/12/11 10:29:09;;;;;;;1999.90;999.90;;;2.70;99.90;;;;;;5052032;28;21024;-68
2021/12/11 10:31:40;;;;;;;1999.90;999.90;;;2.60;99.90;;;;;;5050966;28;20450;-67
2021/12/11 10:34:11;;;;;;;1999.90;999.90;;;2.50;99.90;;;;;;5051462;28;20450;-66
2021/12/11 10:36:41;;;;;;;1999.90;999.90;;;2.40;99.90;;;;;;5051368;28;20450;-68
2021/12/11 10:39:11;;;;;;;1999.90;999.90;;;2.30;99.90;;;;;;5051270;28;20539;-68
2021/12/11 10:41:38;;;;;;;1999.90;999.90;;;2.40;99.90;;;;;;5050694;28;20446;-70
2021/12/11 10:44:10;;;;;;;1999.90;999.90;;;2.40;99.90;;;;;;5051115;28;20930;-68
2021/12/11 10:46:40;;;;;;;1999.90;999.90;;;2.50;99.90;;;;;;5051949;28;20431;-67
2021/12/11 10:49:09;;;;;;;1999.90;999.90;;;2.60;99.90;;;;;;5050410;28;20983;-68
2021/12/11 10:51:41;;;;;;;1999.90;999.90;;;2.70;99.90;;;;;;5050696;28;20442;-67
2021/12/11 10:54:09;;;;;;;1999.90;999.90;;;2.80;99.90;;;;;;5051067;28;20447;-68
2021/12/11 10:56:37;;;;;;;1999.90;999.90;;;2.90;99.90;;;;;;5052243;28;20473;-67
2021/12/11 10:59:10;;;;;;;1999.90;999.90;;;3.00;99.90;;;;;;5051606;28;20462;-67
2021/12/11 11:01:41;;;;;;;1999.90;999.90;;;3.10;99.90;;;;;;5051377;28;20458;-67
2021/12/11 11:04:11;;;;;;;1999.90;999.90;;;3.30;99.90;;;;;;5050521;28;20508;-68
2021/12/11 11:06:38;;;;;;;1999.90;999.90;;;3.40;99.90;;;;;;5050779;28;20520;-67
2021/12/11 11:09:07;;;;;;;1999.90;999.90;;;3.60;99.90;;;;;;5050731;28;20454;-68
2021/12/11 11:11:36;;;;;;;1999.90;999.90;;;3.80;99.90;;;;;;5050334;28;20450;-68
2021/12/11 11:14:04;;;;;;;1999.90;999.90;;;3.80;99.90;;;;;;5051584;28;20450;-68
2021/12/11 11:16:34;;;;;;;1999.90;999.90;;;3.90;99.90;;;;;;5049572;28;20442;-71
2021/12/11 11:19:01;;;;;;;1999.90;999.90;;;4.00;99.90;;;;;;5050031;28;20459;-70
2021/12/11 11:21:32;;;;;;;1999.90;999.90;;;4.20;99.90;;;;;;5050278;28;20446;-69
2021/12/11 11:23:59;;;;;;;1999.90;999.90;;;4.20;99.90;;;;;;5050470;28;20454;-68
2021/12/11 11:26:31;;;;;;;1999.90;999.90;;;4.30;99.90;;;;;;5049725;28;20442;-71
2021/12/11 11:29:00;;;;;;;1999.90;999.90;;;4.20;99.90;;;;;;5049262;28;20459;-70
2021/12/11 11:31:34;;;;;;;1999.90;999.90;;;4.20;99.90;;;;;;5050069;28;20443;-70
2021/12/11 11:34:03;;;;;;;1999.90;999.90;;;4.30;99.90;;;;;;5050615;28;20950;-70
2021/12/11 11:36:31;;;;;;;1999.90;999.90;;;4.40;99.90;;;;;;5050135;28;20450;-73
2021/12/11 11:39:01;;;;;;;1999.90;999.90;;;4.50;99.90;;;;;;5050273;28;20450;-69
2021/12/11 11:41:32;;;;;;;1999.90;999.90;;;4.50;99.90;;;;;;5049008;28;20512;-70
2021/12/11 11:44:01;;;;;;;1999.90;999.90;;;4.50;99.90;;;;;;5050012;28;20942;-70
2021/12/11 11:46:28;;;;;;;1999.90;999.90;;;4.60;99.90;;;;;;5049956;28;20507;-70
2021/12/11 11:48:59;;;;;;;1999.90;999.90;;;4.60;99.90;;;;;;5049701;28;20447;-68
2021/12/11 11:51:31;;;;;;;1999.90;999.90;;;4.40;99.90;;;;;;5049986;28;20930;-68
2021/12/11 11:53:58;;;;;;;1999.90;999.90;;;4.50;99.90;;;;;;5050091;28;22283;-67
2021/12/11 11:56:28;;;;;;;1999.90;999.90;;;4.60;99.90;;;;;;5050293;28;20447;-67
2021/12/11 11:58:55;;;;;;;1999.90;999.90;;;4.60;99.90;;;;;;5050141;28;20450;-68
2021/12/11 12:01:28;;;;;;;1999.90;999.90;;;4.50;99.90;;;;;;5050170;28;21290;-68
2021/12/11 12:03:55;;;;;;;1999.90;999.90;;;4.50;99.90;;;;;;5050323;28;20981;-68
2021/12/11 12:06:25;;;;;;;1999.90;999.90;;;4.70;99.90;;;;;;5050024;28;20443;-69
2021/12/11 12:08:55;;;;;;;1999.90;999.90;;;4.70;99.90;;;;;;5050129;28;20454;-68
2021/12/11 12:11:23;;;;;;;1999.90;999.90;;;4.70;99.90;;;;;;5050040;28;20473;-67
2021/12/11 12:13:50;;;;;;;1999.90;999.90;;;4.70;99.90;;;;;;5049714;28;20496;-68
2021/12/11 12:16:18;;;;;;;1999.90;999.90;;;4.70;99.90;;;;;;5049405;28;20454;-70
2021/12/11 12:18:45;;;;;;;1999.90;999.90;;;4.60;99.90;;;;;;5048775;28;20486;-70